sensor_id;sensor_type;location;lat;lon;timestamp;temperature;humidity
23769;DHT22;12064;50.890;5.424;2024-03-06T00:06:24;16.40;99.90
23769;DHT22;12064;50.890;5.424;2024-03-06T00:15:15;16.40;99.90
23769;DHT22;12064;50.890;5.424;2024-03-06T00:24:05;16.40;99.90
23769;DHT22;12064;50.890;5.424;2024-03-06T00:32:56;16.30;99.90
23769;DHT22;12064;50.890;5.424;2024-03-06T00:41:47;16.30;99.90
23769;DHT22;12064;50.890;5.424;2024-03-06T00:50:38;16.30;99.90
23769;DHT22;12064;50.890;5.424;2024-03-06T00:59:28;16.30;99.90
23769;DHT22;12064;50.890;5.424;2024-03-06T01:08:19;16.30;99.90
23769;DHT22;12064;50.890;5.424;2024-03-06T01:17:10;16.30;99.90
23769;DHT22;12064;50.890;5.424;2024-03-06T01:26:01;16.30;99.90
23769;DHT22;12064;50.890;5.424;2024-03-06T01:34:52;16.20;99.90
23769;DHT22;12064;50.890;5.424;2024-03-06T01:43:42;16.20;99.90
23769;DHT22;12064;50.890;5.424;2024-03-06T01:52:33;16.20;99.90
23769;DHT22;12064;50.890;5.424;2024-03-06T02:01:24;16.20;99.90
23769;DHT22;12064;50.890;5.424;2024-03-06T02:10:14;16.20;99.90
23769;DHT22;12064;50.890;5.424;2024-03-06T02:19:06;16.20;99.90
23769;DHT22;12064;50.890;5.424;2024-03-06T02:27:56;16.20;99.90
23769;DHT22;12064;50.890;5.424;2024-03-06T02:36:47;16.10;99.90
23769;DHT22;12064;50.890;5.424;2024-03-06T02:45:38;16.10;99.90
23769;DHT22;12064;50.890;5.424;2024-03-06T02:54:28;16.10;99.90
23769;DHT22;12064;50.890;5.424;2024-03-06T03:03:19;16.00;99.90
23769;DHT22;12064;50.890;5.424;2024-03-06T03:12:10;16.00;99.90
23769;DHT22;12064;50.890;5.424;2024-03-06T03:21:01;16.00;99.90
23769;DHT22;12064;50.890;5.424;2024-03-06T03:29:52;16.00;99.90
23769;DHT22;12064;50.890;5.424;2024-03-06T03:38:42;15.90;99.90
23769;DHT22;12064;50.890;5.424;2024-03-06T03:47:33;15.90;99.90
23769;DHT22;12064;50.890;5.424;2024-03-06T03:56:24;15.90;99.90
23769;DHT22;12064;50.890;5.424;2024-03-06T04:05:15;15.90;99.90
23769;DHT22;12064;50.890;5.424;2024-03-06T04:14:05;15.90;99.90
23769;DHT22;12064;50.890;5.424;2024-03-06T04:22:59;15.80;99.90
23769;DHT22;12064;50.890;5.424;2024-03-06T04:31:50;15.80;99.90
23769;DHT22;12064;50.890;5.424;2024-03-06T04:40:41;15.80;99.90
23769;DHT22;12064;50.890;5.424;2024-03-06T04:49:34;15.80;99.90
23769;DHT22;12064;50.890;5.424;2024-03-06T04:58:25;15.80;99.90
23769;DHT22;12064;50.890;5.424;2024-03-06T05:07:15;15.70;99.90
23769;DHT22;12064;50.890;5.424;2024-03-06T05:16:06;15.80;99.90
23769;DHT22;12064;50.890;5.424;2024-03-06T05:24:59;15.80;99.90
23769;DHT22;12064;50.890;5.424;2024-03-06T05:33:50;15.70;99.90
23769;DHT22;12064;50.890;5.424;2024-03-06T05:42:40;15.70;99.90
23769;DHT22;12064;50.890;5.424;2024-03-06T05:51:32;15.70;99.90
23769;DHT22;12064;50.890;5.424;2024-03-06T06:00:23;15.70;99.90
23769;DHT22;12064;50.890;5.424;2024-03-06T06:09:14;15.60;99.90
23769;DHT22;12064;50.890;5.424;2024-03-06T06:18:06;15.60;99.90
23769;DHT22;12064;50.890;5.424;2024-03-06T06:26:56;15.60;99.90
23769;DHT22;12064;50.890;5.424;2024-03-06T06:35:47;15.60;99.90
23769;DHT22;12064;50.890;5.424;2024-03-06T06:44:38;15.50;99.90
23769;DHT22;12064;50.890;5.424;2024-03-06T06:53:29;15.50;99.90
23769;DHT22;12064;50.890;5.424;2024-03-06T07:02:20;15.50;99.90
23769;DHT22;12064;50.890;5.424;2024-03-06T07:11:11;15.50;99.90
23769;DHT22;12064;50.890;5.424;2024-03-06T07:20:01;15.40;99.90
23769;DHT22;12064;50.890;5.424;2024-03-06T07:28:53;15.50;99.90
23769;DHT22;12064;50.890;5.424;2024-03-06T07:37:43;15.50;99.90
23769;DHT22;12064;50.890;5.424;2024-03-06T07:46:35;15.50;99.90
23769;DHT22;12064;50.890;5.424;2024-03-06T07:55:25;15.50;99.90
23769;DHT22;12064;50.890;5.424;2024-03-06T08:04:17;15.40;99.90
23769;DHT22;12064;50.890;5.424;2024-03-06T08:13:08;15.50;99.90
23769;DHT22;12064;50.890;5.424;2024-03-06T08:21:59;15.80;99.90
23769;DHT22;12064;50.890;5.424;2024-03-06T08:30:52;15.90;99.90
23769;DHT22;12064;50.890;5.424;2024-03-06T08:39:42;16.00;99.90
23769;DHT22;12064;50.890;5.424;2024-03-06T08:48:33;16.20;99.90
23769;DHT22;12064;50.890;5.424;2024-03-06T08:57:24;16.30;99.90
23769;DHT22;12064;50.890;5.424;2024-03-06T09:06:16;16.10;99.90
23769;DHT22;12064;50.890;5.424;2024-03-06T09:15:07;16.20;99.90
23769;DHT22;12064;50.890;5.424;2024-03-06T09:24:00;16.20;99.90
23769;DHT22;12064;50.890;5.424;2024-03-06T09:32:50;16.30;99.90
23769;DHT22;12064;50.890;5.424;2024-03-06T09:41:44;16.40;99.90
23769;DHT22;12064;50.890;5.424;2024-03-06T09:50:37;16.60;99.90
23769;DHT22;12064;50.890;5.424;2024-03-06T09:59:31;16.80;99.90
23769;DHT22;12064;50.890;5.424;2024-03-06T10:08:22;16.90;99.90
23769;DHT22;12064;50.890;5.424;2024-03-06T10:17:19;17.00;99.80
23769;DHT22;12064;50.890;5.424;2024-03-06T10:26:09;17.10;99.50
23769;DHT22;12064;50.890;5.424;2024-03-06T10:35:01;17.20;99.40
23769;DHT22;12064;50.890;5.424;2024-03-06T10:43:54;17.20;99.20
23769;DHT22;12064;50.890;5.424;2024-03-06T10:52:46;17.40;99.20
23769;DHT22;12064;50.890;5.424;2024-03-06T11:01:37;17.50;98.90
23769;DHT22;12064;50.890;5.424;2024-03-06T11:10:33;17.50;98.60
23769;DHT22;12064;50.890;5.424;2024-03-06T11:19:24;17.70;98.40
23769;DHT22;12064;50.890;5.424;2024-03-06T11:28:22;17.70;98.20
23769;DHT22;12064;50.890;5.424;2024-03-06T11:37:13;17.60;98.20
23769;DHT22;12064;50.890;5.424;2024-03-06T11:46:10;17.70;98.20
23769;DHT22;12064;50.890;5.424;2024-03-06T11:55:01;17.80;98.10
23769;DHT22;12064;50.890;5.424;2024-03-06T12:03:52;17.70;98.00
23769;DHT22;12064;50.890;5.424;2024-03-06T12:12:43;17.90;97.90
23769;DHT22;12064;50.890;5.424;2024-03-06T12:21:34;18.00;97.50
23769;DHT22;12064;50.890;5.424;2024-03-06T12:30:25;18.10;97.40
23769;DHT22;12064;50.890;5.424;2024-03-06T12:39:16;18.20;96.90
23769;DHT22;12064;50.890;5.424;2024-03-06T12:48:11;18.20;96.30
23769;DHT22;12064;50.890;5.424;2024-03-06T12:57:03;18.30;96.60
23769;DHT22;12064;50.890;5.424;2024-03-06T13:05:54;18.30;96.50
23769;DHT22;12064;50.890;5.424;2024-03-06T13:14:45;18.30;96.40
23769;DHT22;12064;50.890;5.424;2024-03-06T13:23:36;18.40;96.30
23769;DHT22;12064;50.890;5.424;2024-03-06T13:32:27;18.40;96.20
23769;DHT22;12064;50.890;5.424;2024-03-06T13:41:18;18.50;96.20
23769;DHT22;12064;50.890;5.424;2024-03-06T13:50:16;18.50;96.10
23769;DHT22;12064;50.890;5.424;2024-03-06T13:59:07;18.50;96.10
23769;DHT22;12064;50.890;5.424;2024-03-06T14:07:58;18.60;96.00
23769;DHT22;12064;50.890;5.424;2024-03-06T14:16:49;18.60;96.00
23769;DHT22;12064;50.890;5.424;2024-03-06T14:25:39;18.60;95.90
23769;DHT22;12064;50.890;5.424;2024-03-06T14:34:30;18.60;95.90
23769;DHT22;12064;50.890;5.424;2024-03-06T14:43:21;18.70;95.80
23769;DHT22;12064;50.890;5.424;2024-03-06T14:52:12;18.70;95.70
23769;DHT22;12064;50.890;5.424;2024-03-06T15:01:06;18.70;95.60
23769;DHT22;12064;50.890;5.424;2024-03-06T15:09:56;18.70;95.50
23769;DHT22;12064;50.890;5.424;2024-03-06T15:18:48;18.80;95.60
23769;DHT22;12064;50.890;5.424;2024-03-06T15:27:40;18.80;95.50
23769;DHT22;12064;50.890;5.424;2024-03-06T15:36:30;18.90;95.80
23769;DHT22;12064;50.890;5.424;2024-03-06T15:45:21;18.80;95.40
23769;DHT22;12064;50.890;5.424;2024-03-06T15:54:12;18.90;95.30
23769;DHT22;12064;50.890;5.424;2024-03-06T16:03:04;18.90;95.30
23769;DHT22;12064;50.890;5.424;2024-03-06T16:11:55;18.90;95.20
23769;DHT22;12064;50.890;5.424;2024-03-06T16:20:45;18.90;95.30
23769;DHT22;12064;50.890;5.424;2024-03-06T16:29:36;18.90;95.30
23769;DHT22;12064;50.890;5.424;2024-03-06T16:38:27;18.80;95.60
23769;DHT22;12064;50.890;5.424;2024-03-06T16:47:17;18.80;95.70
23769;DHT22;12064;50.890;5.424;2024-03-06T16:56:08;18.80;95.60
23769;DHT22;12064;50.890;5.424;2024-03-06T17:04:59;18.80;95.60
23769;DHT22;12064;50.890;5.424;2024-03-06T17:13:50;18.80;95.80
23769;DHT22;12064;50.890;5.424;2024-03-06T17:22:40;18.70;96.00
23769;DHT22;12064;50.890;5.424;2024-03-06T17:31:31;18.70;96.10
23769;DHT22;12064;50.890;5.424;2024-03-06T17:40:25;18.60;96.30
23769;DHT22;12064;50.890;5.424;2024-03-06T17:49:16;18.50;96.40
23769;DHT22;12064;50.890;5.424;2024-03-06T17:58:08;18.50;96.60
23769;DHT22;12064;50.890;5.424;2024-03-06T18:06:58;18.40;96.80
23769;DHT22;12064;50.890;5.424;2024-03-06T18:15:49;18.40;97.00
23769;DHT22;12064;50.890;5.424;2024-03-06T18:24:42;18.30;97.10
23769;DHT22;12064;50.890;5.424;2024-03-06T18:33:33;18.30;97.30
23769;DHT22;12064;50.890;5.424;2024-03-06T18:42:24;18.20;97.60
23769;DHT22;12064;50.890;5.424;2024-03-06T18:51:15;18.10;97.70
23769;DHT22;12064;50.890;5.424;2024-03-06T19:00:06;18.10;98.00
23769;DHT22;12064;50.890;5.424;2024-03-06T19:09:00;18.00;98.20
23769;DHT22;12064;50.890;5.424;2024-03-06T19:17:51;18.00;98.30
23769;DHT22;12064;50.890;5.424;2024-03-06T19:26:42;17.90;98.80
23769;DHT22;12064;50.890;5.424;2024-03-06T19:35:33;17.90;98.60
23769;DHT22;12064;50.890;5.424;2024-03-06T19:44:23;17.90;98.60
23769;DHT22;12064;50.890;5.424;2024-03-06T19:53:17;17.80;98.90
23769;DHT22;12064;50.890;5.424;2024-03-06T20:02:07;17.80;99.00
23769;DHT22;12064;50.890;5.424;2024-03-06T20:10:58;17.70;99.30
23769;DHT22;12064;50.890;5.424;2024-03-06T20:19:49;17.60;99.40
23769;DHT22;12064;50.890;5.424;2024-03-06T20:28:41;17.60;99.60
23769;DHT22;12064;50.890;5.424;2024-03-06T20:37:34;17.60;99.80
23769;DHT22;12064;50.890;5.424;2024-03-06T20:46:24;17.60;99.70
23769;DHT22;12064;50.890;5.424;2024-03-06T20:55:15;17.50;99.90
23769;DHT22;12064;50.890;5.424;2024-03-06T21:04:08;17.40;99.90
23769;DHT22;12064;50.890;5.424;2024-03-06T21:13:01;17.50;99.90
23769;DHT22;12064;50.890;5.424;2024-03-06T21:21:53;17.40;99.90
23769;DHT22;12064;50.890;5.424;2024-03-06T21:30:44;17.40;99.90
23769;DHT22;12064;50.890;5.424;2024-03-06T21:39:39;17.40;99.90
23769;DHT22;12064;50.890;5.424;2024-03-06T21:48:30;17.40;99.90
23769;DHT22;12064;50.890;5.424;2024-03-06T21:57:21;17.40;99.90
23769;DHT22;12064;50.890;5.424;2024-03-06T22:06:11;17.40;99.90
23769;DHT22;12064;50.890;5.424;2024-03-06T22:15:02;17.40;99.90
23769;DHT22;12064;50.890;5.424;2024-03-06T22:23:53;17.40;99.90
23769;DHT22;12064;50.890;5.424;2024-03-06T22:32:44;17.30;99.90
23769;DHT22;12064;50.890;5.424;2024-03-06T22:41:34;17.30;99.90
23769;DHT22;12064;50.890;5.424;2024-03-06T22:50:28;17.20;99.90
23769;DHT22;12064;50.890;5.424;2024-03-06T22:59:19;17.10;99.90
23769;DHT22;12064;50.890;5.424;2024-03-06T23:08:10;17.10;99.90
23769;DHT22;12064;50.890;5.424;2024-03-06T23:17:01;17.10;99.90
23769;DHT22;12064;50.890;5.424;2024-03-06T23:25:52;17.10;99.90
23769;DHT22;12064;50.890;5.424;2024-03-06T23:34:43;17.00;99.90
23769;DHT22;12064;50.890;5.424;2024-03-06T23:43:34;17.00;99.90
23769;DHT22;12064;50.890;5.424;2024-03-06T23:52:26;17.00;99.90
